createdAt,value
2018-10-17T00:00:47.496Z,16.93
2018-10-17T00:03:15.811Z,16.70
2018-10-17T00:05:44.477Z,19.00
2018-10-17T00:08:12.794Z,18.53
2018-10-17T00:10:41.206Z,18.13
2018-10-17T00:13:09.584Z,18.70
2018-10-17T00:15:37.916Z,19.03
2018-10-17T00:18:06.470Z,17.43
2018-10-17T00:20:34.831Z,19.37
2018-10-17T00:23:03.216Z,18.80
2018-10-17T00:25:31.561Z,15.80
2018-10-17T00:27:59.878Z,15.70
2018-10-17T00:30:28.184Z,16.27
2018-10-17T00:32:56.570Z,17.73
2018-10-17T00:35:24.909Z,17.50
2018-10-17T00:37:53.246Z,18.77
2018-10-17T00:40:23.996Z,16.83
2018-10-17T00:42:53.159Z,15.80
2018-10-17T00:45:21.626Z,18.97
2018-10-17T00:47:49.974Z,20.83
2018-10-17T00:50:18.341Z,17.23
2018-10-17T00:52:46.650Z,18.00
2018-10-17T00:55:15.340Z,19.83
2018-10-17T00:57:43.587Z,20.33
2018-10-17T01:00:11.946Z,18.83
2018-10-17T01:02:40.294Z,18.77
2018-10-17T01:05:08.747Z,19.50
2018-10-17T01:07:37.080Z,19.93
2018-10-17T01:10:05.615Z,16.40
2018-10-17T01:12:33.926Z,20.70
2018-10-17T01:15:02.289Z,20.17
2018-10-17T01:17:30.654Z,18.23
2018-10-17T01:19:58.983Z,17.80
2018-10-17T01:22:27.466Z,18.50
2018-10-17T01:24:55.865Z,19.73
2018-10-17T01:27:24.214Z,19.13
2018-10-17T01:29:52.567Z,16.93
2018-10-17T01:32:20.916Z,19.40
2018-10-17T01:34:49.287Z,20.50
2018-10-17T01:37:17.670Z,19.23
2018-10-17T01:39:46.010Z,19.43
2018-10-17T01:42:14.343Z,20.37
2018-10-17T01:44:42.679Z,20.43
2018-10-17T01:47:11.101Z,20.40
2018-10-17T01:49:39.455Z,19.57
2018-10-17T01:52:07.785Z,20.67
2018-10-17T01:54:36.159Z,24.13
2018-10-17T01:57:04.575Z,23.80
2018-10-17T01:59:32.882Z,21.67
2018-10-17T02:02:01.236Z,22.43
2018-10-17T02:04:29.534Z,21.67
2018-10-17T02:06:57.929Z,19.57
2018-10-17T02:09:26.244Z,22.23
2018-10-17T02:11:54.588Z,23.93
2018-10-17T02:14:22.939Z,26.23
2018-10-17T02:16:51.368Z,23.67
2018-10-17T02:19:19.709Z,26.30
2018-10-17T02:21:48.041Z,22.90
2018-10-17T02:24:16.388Z,21.67
2018-10-17T02:26:44.727Z,22.90
2018-10-17T02:29:13.137Z,25.10
2018-10-17T02:31:41.495Z,22.50
2018-10-17T02:34:09.819Z,22.37
2018-10-17T02:36:38.191Z,20.20
2018-10-17T02:39:08.242Z,24.17
2018-10-17T02:41:47.719Z,21.07
2018-10-17T02:44:26.359Z,20.17
2018-10-17T02:46:57.652Z,21.50
2018-10-17T02:49:26.127Z,23.53
2018-10-17T02:51:54.466Z,22.13
2018-10-17T02:54:22.832Z,24.77
2018-10-17T02:56:51.174Z,25.90
2018-10-17T02:59:19.551Z,24.13
2018-10-17T03:01:47.899Z,24.43
2018-10-17T03:04:16.248Z,23.40
2018-10-17T03:06:44.616Z,21.27
2018-10-17T03:09:12.947Z,25.17
2018-10-17T03:11:41.276Z,23.60
2018-10-17T03:14:09.639Z,23.53
2018-10-17T03:16:38.048Z,24.00
2018-10-17T03:19:06.459Z,22.93
2018-10-17T03:21:34.838Z,21.93
2018-10-17T03:24:03.186Z,21.23
2018-10-17T03:26:31.535Z,21.23
2018-10-17T03:28:59.957Z,19.87
2018-10-17T03:31:28.383Z,20.13
2018-10-17T03:33:56.672Z,21.17
2018-10-17T03:36:25.001Z,23.97
2018-10-17T03:38:53.371Z,21.37
2018-10-17T03:41:21.710Z,22.97
2018-10-17T03:43:50.023Z,20.07
2018-10-17T03:46:18.362Z,19.30
2018-10-17T03:48:46.682Z,19.70
2018-10-17T03:51:15.155Z,19.97
2018-10-17T03:53:43.500Z,21.83
2018-10-17T03:56:11.840Z,20.17
2018-10-17T03:58:40.217Z,22.40
2018-10-17T04:01:08.619Z,22.87
2018-10-17T04:03:36.915Z,20.70
2018-10-17T04:06:05.582Z,19.43
2018-10-17T04:08:33.947Z,20.33
2018-10-17T04:11:02.335Z,21.87
2018-10-17T04:13:30.688Z,20.60
2018-10-17T04:15:59.056Z,18.83
2018-10-17T04:18:27.411Z,19.80
2018-10-17T04:20:55.814Z,17.10
2018-10-17T04:23:24.144Z,20.37
2018-10-17T04:25:52.449Z,18.70
2018-10-17T04:28:20.814Z,22.33
2018-10-17T04:30:49.167Z,25.07
2018-10-17T04:33:17.519Z,27.13
2018-10-17T04:35:45.945Z,21.50
2018-10-17T04:38:14.346Z,22.77
2018-10-17T04:40:42.779Z,19.33
2018-10-17T04:43:11.430Z,21.63
2018-10-17T04:45:40.017Z,19.83
2018-10-17T04:48:08.414Z,19.20
2018-10-17T04:50:36.815Z,22.83
2018-10-17T04:53:05.346Z,24.93
2018-10-17T04:55:33.690Z,22.27
2018-10-17T04:58:02.126Z,22.03
2018-10-17T05:00:30.488Z,22.43
2018-10-17T05:02:58.826Z,22.40
2018-10-17T05:05:27.182Z,21.37
2018-10-17T05:07:55.684Z,27.90
2018-10-17T05:10:24.065Z,23.37
2018-10-17T05:12:52.409Z,23.67
2018-10-17T05:15:20.865Z,23.07
2018-10-17T05:17:49.187Z,24.83
2018-10-17T05:20:17.756Z,22.87
2018-10-17T05:22:46.138Z,22.37
2018-10-17T05:25:14.511Z,25.13
2018-10-17T05:27:42.832Z,28.53
2018-10-17T05:30:11.152Z,24.97
2018-10-17T05:32:39.537Z,29.33
2018-10-17T05:35:08.252Z,26.80
2018-10-17T05:37:36.720Z,24.57
2018-10-17T05:40:06.086Z,27.77
2018-10-17T05:42:34.478Z,24.57
2018-10-17T05:45:03.475Z,23.10
2018-10-17T05:47:32.307Z,23.17
2018-10-17T05:50:00.816Z,25.17
2018-10-17T05:52:29.179Z,25.53
2018-10-17T05:54:57.606Z,27.77
2018-10-17T05:57:26.003Z,27.30
2018-10-17T05:59:54.426Z,29.20
2018-10-17T06:02:27.297Z,30.07
2018-10-17T06:04:56.078Z,28.47
2018-10-17T06:07:24.508Z,30.47
2018-10-17T06:09:52.983Z,34.43
2018-10-17T06:12:21.330Z,31.47
2018-10-17T06:14:49.682Z,31.97
2018-10-17T06:17:18.179Z,34.03
2018-10-17T06:19:46.578Z,30.00
2018-10-17T06:22:14.925Z,29.00
2018-10-17T06:24:43.324Z,32.70
2018-10-17T06:27:11.963Z,38.47
2018-10-17T06:29:40.484Z,37.53
2018-10-17T06:32:08.831Z,32.93
2018-10-17T06:34:37.295Z,31.83
2018-10-17T06:37:06.167Z,31.20
2018-10-17T06:39:34.490Z,29.60
2018-10-17T06:42:02.931Z,29.93
2018-10-17T06:44:31.337Z,33.97
2018-10-17T06:46:59.782Z,33.90
2018-10-17T06:49:28.071Z,31.47
2018-10-17T06:51:56.443Z,33.20
2018-10-17T06:54:24.842Z,31.63
2018-10-17T06:56:53.202Z,31.37
2018-10-17T06:59:21.608Z,33.23
2018-10-17T07:01:50.001Z,42.93
2018-10-17T07:04:18.373Z,37.43
2018-10-17T07:06:46.844Z,34.87
2018-10-17T07:09:15.228Z,32.37
2018-10-17T07:11:43.837Z,33.10
2018-10-17T07:14:12.204Z,32.23
2018-10-17T07:16:40.564Z,33.63
2018-10-17T07:19:09.080Z,33.90
2018-10-17T07:21:37.592Z,33.53
2018-10-17T07:24:05.939Z,29.30
2018-10-17T07:26:34.326Z,29.97
2018-10-17T07:29:09.249Z,34.03
2018-10-17T07:31:37.995Z,38.03
2018-10-17T07:34:06.519Z,37.57
2018-10-17T07:36:34.891Z,34.03
2018-10-17T07:39:03.664Z,45.27
2018-10-17T07:41:32.072Z,39.73
2018-10-17T07:44:01.516Z,56.90
2018-10-17T07:46:30.200Z,49.20
2018-10-17T07:48:58.607Z,41.73
2018-10-17T07:51:26.984Z,43.00
2018-10-17T07:53:55.380Z,40.20
2018-10-17T07:56:23.857Z,42.50
2018-10-17T07:58:52.247Z,40.23
2018-10-17T08:01:20.610Z,49.70
2018-10-17T08:03:48.979Z,43.63
2018-10-17T08:06:17.510Z,44.57
2018-10-17T08:08:45.959Z,48.30
2018-10-17T08:11:14.315Z,44.43
2018-10-17T08:13:42.703Z,42.13
2018-10-17T08:16:11.307Z,46.47
2018-10-17T08:18:39.724Z,42.77
2018-10-17T08:21:08.206Z,46.67
2018-10-17T08:23:36.556Z,43.47
2018-10-17T08:26:04.899Z,42.13
2018-10-17T08:28:33.254Z,43.70
2018-10-17T08:31:01.603Z,41.77
2018-10-17T08:33:29.966Z,43.30
2018-10-17T08:35:58.623Z,43.47
2018-10-17T08:38:26.920Z,44.10
2018-10-17T08:40:55.361Z,45.00
2018-10-17T08:43:23.718Z,40.67
2018-10-17T08:45:52.080Z,42.80
2018-10-17T08:48:20.435Z,40.33
2018-10-17T08:50:48.933Z,40.13
2018-10-17T08:53:29.547Z,41.23
2018-10-17T08:55:57.905Z,43.13
2018-10-17T08:58:26.255Z,39.93
2018-10-17T09:00:54.644Z,38.73
2018-10-17T09:03:23.018Z,39.23
2018-10-17T09:05:51.385Z,39.77
2018-10-17T09:08:19.824Z,40.40
2018-10-17T09:10:48.178Z,39.67
2018-10-17T09:13:16.560Z,39.50
2018-10-17T09:15:44.904Z,43.77
2018-10-17T09:18:13.354Z,39.93
2018-10-17T09:20:41.942Z,40.33
2018-10-17T09:23:10.082Z,37.60
2018-10-17T09:25:38.468Z,35.07
2018-10-17T09:28:06.663Z,39.80
2018-10-17T09:30:35.009Z,27.87
2018-10-17T09:33:03.527Z,28.43
2018-10-17T09:35:31.917Z,27.57
2018-10-17T09:38:00.300Z,26.37
2018-10-17T09:40:28.641Z,24.43
2018-10-17T09:42:57.016Z,25.50
2018-10-17T09:45:25.351Z,23.77
2018-10-17T09:47:53.716Z,23.60
2018-10-17T09:50:22.072Z,32.60
2018-10-17T09:52:50.506Z,21.20
2018-10-17T09:55:18.875Z,20.90
2018-10-17T09:57:47.245Z,18.40
2018-10-17T10:00:20.932Z,18.17
2018-10-17T10:02:50.810Z,15.70
2018-10-17T10:05:19.169Z,16.47
2018-10-17T10:07:47.555Z,16.02
2018-10-17T10:10:15.998Z,15.70
2018-10-17T10:12:44.307Z,17.00
2018-10-17T10:15:12.721Z,14.23
2018-10-17T10:17:41.151Z,15.37
2018-10-17T10:20:09.474Z,13.63
2018-10-17T10:22:37.810Z,12.70
2018-10-17T10:25:06.419Z,11.30
2018-10-17T10:27:34.768Z,11.70
2018-10-17T10:30:03.404Z,12.60
2018-10-17T10:32:31.880Z,12.27
2018-10-17T10:35:00.255Z,12.43
2018-10-17T10:37:28.597Z,11.97
2018-10-17T10:39:57.011Z,13.35
2018-10-17T10:42:25.328Z,13.27
2018-10-17T10:44:53.707Z,11.20
2018-10-17T10:47:22.050Z,12.03
2018-10-17T10:49:50.412Z,15.15
2018-10-17T10:52:18.738Z,15.37
2018-10-17T10:54:47.201Z,14.45
2018-10-17T10:57:15.676Z,15.60
2018-10-17T10:59:44.368Z,16.87
2018-10-17T11:02:12.682Z,16.97
2018-10-17T11:04:41.081Z,15.98
2018-10-17T11:07:09.443Z,17.37
2018-10-17T11:09:37.804Z,16.12
2018-10-17T11:12:06.571Z,16.42
2018-10-17T11:14:35.000Z,15.95
2018-10-17T11:17:03.404Z,15.83
2018-10-17T11:19:31.764Z,14.80
2018-10-17T11:22:00.155Z,14.55
2018-10-17T11:24:28.494Z,15.20
2018-10-17T11:26:56.855Z,16.12
2018-10-17T11:29:25.272Z,15.38
2018-10-17T11:31:53.690Z,13.95
2018-10-17T11:34:21.967Z,15.25
2018-10-17T11:36:50.408Z,16.50
2018-10-17T11:39:18.808Z,16.00
2018-10-17T11:41:47.147Z,14.20
2018-10-17T11:44:15.528Z,14.90
2018-10-17T11:46:43.858Z,14.93
2018-10-17T11:49:12.219Z,15.20
2018-10-17T11:51:40.610Z,13.75
2018-10-17T11:54:08.971Z,14.05
2018-10-17T11:56:37.314Z,14.38
2018-10-17T11:59:05.901Z,13.30
2018-10-17T12:01:34.263Z,14.43
2018-10-17T12:04:02.890Z,14.03
2018-10-17T12:06:31.107Z,13.58
2018-10-17T12:08:59.444Z,13.48
2018-10-17T12:11:27.877Z,12.55
2018-10-17T12:13:56.199Z,12.10
2018-10-17T12:16:24.547Z,12.30
2018-10-17T12:18:53.047Z,10.88
2018-10-17T12:21:21.447Z,11.70
2018-10-17T12:23:49.747Z,10.18
2018-10-17T12:26:18.268Z,10.18
2018-10-17T12:57:53.871Z,9.93
2018-10-17T13:00:22.391Z,10.23
2018-10-17T13:02:50.683Z,11.70
2018-10-17T13:05:19.001Z,11.03
2018-10-17T13:07:47.338Z,10.93
2018-10-17T13:10:15.627Z,11.40
2018-10-17T13:12:43.877Z,10.25
2018-10-17T13:15:14.215Z,11.10
2018-10-17T13:17:43.584Z,9.85
2018-10-17T13:20:12.049Z,9.60
2018-10-17T13:22:40.647Z,12.75
2018-10-17T13:25:09.020Z,9.60
2018-10-17T13:27:37.353Z,9.60
2018-10-17T13:30:06.411Z,9.33
2018-10-17T13:32:34.729Z,9.55
2018-10-17T13:35:03.408Z,9.05
2018-10-17T13:37:31.823Z,9.50
2018-10-17T13:40:00.130Z,9.25
2018-10-17T13:42:28.497Z,9.40
2018-10-17T13:44:56.815Z,10.25
2018-10-17T13:47:25.226Z,12.58
2018-10-17T13:49:53.932Z,9.05
2018-10-17T13:52:22.312Z,9.50
2018-10-17T13:54:50.689Z,8.83
2018-10-17T13:57:18.952Z,10.10
2018-10-17T13:59:47.348Z,9.30
2018-10-17T14:02:15.738Z,12.18
2018-10-17T14:04:44.050Z,9.65
2018-10-17T14:07:12.627Z,9.68
2018-10-17T14:09:44.140Z,10.68
2018-10-17T14:12:12.686Z,9.85
2018-10-17T14:14:42.084Z,10.23
2018-10-17T14:17:10.783Z,9.98
2018-10-17T14:19:39.328Z,10.68
2018-10-17T14:22:08.615Z,10.38
2018-10-17T14:24:37.416Z,12.45
2018-10-17T14:27:06.554Z,11.03
2018-10-17T14:29:37.984Z,12.82
2018-10-17T14:32:06.961Z,11.20
2018-10-17T14:34:35.666Z,9.88
2018-10-17T14:37:04.128Z,12.53
2018-10-17T14:39:32.527Z,10.43
2018-10-17T14:42:01.020Z,10.05
2018-10-17T14:44:29.384Z,11.55
2018-10-17T14:46:57.884Z,11.03
2018-10-17T14:49:26.178Z,10.25
2018-10-17T14:51:54.969Z,9.65
2018-10-17T14:54:24.241Z,10.98
2018-10-17T14:57:03.635Z,11.75
2018-10-17T14:59:32.284Z,9.30
2018-10-17T15:02:00.871Z,10.30
2018-10-17T15:04:30.579Z,10.60
2018-10-17T15:06:59.054Z,10.58
2018-10-17T15:09:27.915Z,10.93
2018-10-17T15:11:56.698Z,10.70
2018-10-17T15:14:24.791Z,10.93
2018-10-17T15:16:53.457Z,10.20
2018-10-17T15:19:21.866Z,9.83
2018-10-17T15:21:50.195Z,9.73
2018-10-17T15:24:18.978Z,10.98
2018-10-17T15:26:47.285Z,9.83
2018-10-17T15:29:22.023Z,9.88
2018-10-17T15:31:50.543Z,10.55
2018-10-17T15:34:18.812Z,10.48
2018-10-17T15:36:47.246Z,10.80
2018-10-17T15:39:16.710Z,9.90
2018-10-17T15:41:45.419Z,9.98
2018-10-17T15:44:13.888Z,9.30
2018-10-17T15:46:42.266Z,9.68
2018-10-17T15:49:10.757Z,10.08
2018-10-17T15:51:39.691Z,10.38
2018-10-17T15:54:08.079Z,10.25
2018-10-17T15:56:36.849Z,18.50
2018-10-17T15:59:05.624Z,22.32
2018-10-17T16:01:34.288Z,21.50
2018-10-17T16:04:03.487Z,14.93
2018-10-17T16:06:32.148Z,13.93
2018-10-17T16:09:00.857Z,13.85
2018-10-17T16:11:29.420Z,10.93
2018-10-17T16:13:58.188Z,11.18
2018-10-17T16:16:26.654Z,10.80
2018-10-17T16:18:55.010Z,9.63
2018-10-17T16:21:23.311Z,10.60
2018-10-17T16:23:51.852Z,11.17
2018-10-17T16:26:20.273Z,10.63
2018-10-17T16:28:48.664Z,10.10
2018-10-17T16:31:17.248Z,13.10
2018-10-17T16:33:45.564Z,11.27
2018-10-17T16:36:13.945Z,13.13
2018-10-17T16:38:42.241Z,12.90
2018-10-17T16:41:10.563Z,12.00
2018-10-17T16:43:38.948Z,12.30
2018-10-17T16:46:07.793Z,12.73
2018-10-17T16:48:36.243Z,13.87
2018-10-17T16:51:04.611Z,14.23
2018-10-17T16:53:32.969Z,16.40
2018-10-17T16:56:01.305Z,16.50
2018-10-17T16:58:29.698Z,16.70
2018-10-17T17:00:58.063Z,16.33
2018-10-17T17:03:26.419Z,18.73
2018-10-17T17:05:54.811Z,18.00
2018-10-17T17:08:23.276Z,17.97
2018-10-17T17:10:51.622Z,17.83
2018-10-17T17:13:19.941Z,16.90
2018-10-17T17:15:48.288Z,16.83
2018-10-17T17:18:16.777Z,16.73
2018-10-17T17:20:45.013Z,16.67
2018-10-17T17:23:13.364Z,17.60
2018-10-17T17:25:42.144Z,18.35
2018-10-17T17:28:10.515Z,17.43
2018-10-17T17:30:38.995Z,21.17
2018-10-17T17:33:07.381Z,22.13
2018-10-17T17:35:35.727Z,16.20
2018-10-17T17:38:04.351Z,16.90
2018-10-17T17:40:32.741Z,17.83
2018-10-17T17:43:02.568Z,16.43
2018-10-17T17:48:04.142Z,17.57
2018-10-17T17:50:33.223Z,17.57
2018-10-17T17:53:01.584Z,18.27
2018-10-17T17:55:32.716Z,17.03
2018-10-17T17:58:04.775Z,17.67
2018-10-17T18:00:35.372Z,20.57
2018-10-17T18:03:06.600Z,15.63
2018-10-17T18:05:38.663Z,16.33
2018-10-17T18:08:08.307Z,18.30
2018-10-17T18:10:38.653Z,17.37
2018-10-17T18:13:08.564Z,18.60
2018-10-17T18:15:39.059Z,18.47
2018-10-17T18:18:08.386Z,17.33
2018-10-17T18:20:36.999Z,16.50
2018-10-17T18:23:07.356Z,18.77
2018-10-17T18:25:35.787Z,16.20
2018-10-17T18:28:05.436Z,16.13
2018-10-17T18:30:34.772Z,16.27
2018-10-17T18:33:03.589Z,16.27
2018-10-17T18:35:33.570Z,17.40
2018-10-17T18:38:02.326Z,18.57
2018-10-17T18:40:30.768Z,17.10
2018-10-17T18:43:00.223Z,19.30
2018-10-17T18:45:28.561Z,18.67
2018-10-17T18:47:57.346Z,17.93
2018-10-17T18:50:26.899Z,18.27
2018-10-17T18:52:56.383Z,18.97
2018-10-17T18:55:26.021Z,18.47
2018-10-17T18:57:55.081Z,17.47
2018-10-17T19:00:24.352Z,20.77
2018-10-17T19:02:52.734Z,17.93
2018-10-17T19:05:21.298Z,19.90
2018-10-17T19:07:49.843Z,16.60
2018-10-17T19:10:19.089Z,16.77
2018-10-17T19:12:47.643Z,16.77
2018-10-17T19:15:16.083Z,22.67
2018-10-17T19:17:44.488Z,22.50
2018-10-17T19:20:13.083Z,22.50
2018-10-17T19:22:43.095Z,25.63
2018-10-17T19:25:11.502Z,17.60
2018-10-17T19:27:39.827Z,18.93
2018-10-17T19:30:09.599Z,20.97
2018-10-17T19:32:38.084Z,21.07
2018-10-17T19:35:06.715Z,19.53
2018-10-17T19:37:35.507Z,21.83
2018-10-17T19:40:03.952Z,20.10
2018-10-17T19:42:32.281Z,20.57
2018-10-17T19:45:04.305Z,18.83
2018-10-17T19:47:32.652Z,18.60
2018-10-17T19:50:00.993Z,21.10
2018-10-17T19:52:29.492Z,21.93
2018-10-17T19:54:58.023Z,23.20
2018-10-17T19:57:32.646Z,21.87
2018-10-17T20:04:25.811Z,20.67
2018-10-17T20:06:54.164Z,17.23
2018-10-17T20:09:22.529Z,19.97
2018-10-17T20:11:50.932Z,20.07
2018-10-17T20:14:19.299Z,21.93
2018-10-17T20:16:47.636Z,23.43
2018-10-17T20:19:16.054Z,23.50
2018-10-17T20:21:44.392Z,22.07
2018-10-17T20:24:12.771Z,20.90
2018-10-17T20:26:41.162Z,18.07
2018-10-17T20:29:09.518Z,19.53
2018-10-17T20:31:37.956Z,17.33
2018-10-17T20:34:06.312Z,19.20
2018-10-17T20:36:34.824Z,19.77
2018-10-17T20:39:03.198Z,16.97
2018-10-17T20:41:31.529Z,20.07
2018-10-17T20:43:59.909Z,19.60
2018-10-17T20:46:28.404Z,17.30
2018-10-17T20:48:56.716Z,18.00
2018-10-17T20:51:25.044Z,17.47
2018-10-17T20:53:53.457Z,18.77
2018-10-17T20:56:21.911Z,20.77
2018-10-17T20:58:50.141Z,19.83
2018-10-17T21:01:18.568Z,20.17
2018-10-17T21:03:46.935Z,17.90
2018-10-17T21:06:15.291Z,19.47
2018-10-17T21:08:43.660Z,18.03
2018-10-17T21:11:12.057Z,18.50
2018-10-17T21:13:40.392Z,17.00
2018-10-17T21:16:08.711Z,19.90
2018-10-17T21:18:37.027Z,20.30
2018-10-17T21:21:05.752Z,21.57
2018-10-17T21:23:34.052Z,19.47
2018-10-17T21:26:02.484Z,17.10
2018-10-17T21:28:30.838Z,16.40
2018-10-17T21:30:59.224Z,16.83
2018-10-17T21:33:27.529Z,16.67
2018-10-17T21:35:55.919Z,18.60
2018-10-17T21:38:24.328Z,16.80
2018-10-17T21:40:52.697Z,17.93
2018-10-17T21:43:21.072Z,18.30
2018-10-17T21:45:49.392Z,17.37
2018-10-17T21:48:17.726Z,19.40
2018-10-17T21:50:46.096Z,17.13
2018-10-17T21:53:14.447Z,18.23
2018-10-17T21:55:42.828Z,20.43
2018-10-17T21:58:11.146Z,21.03
2018-10-17T22:00:39.729Z,20.17
2018-10-17T22:03:08.026Z,18.73
2018-10-17T22:05:36.391Z,20.00
2018-10-17T22:08:05.166Z,18.47
2018-10-17T22:10:33.417Z,18.37
2018-10-17T22:13:02.203Z,19.00
2018-10-17T22:15:30.575Z,41.57
2018-10-17T22:17:58.874Z,38.60
2018-10-17T22:20:27.262Z,28.23
2018-10-17T22:22:55.637Z,32.23
2018-10-17T22:25:23.947Z,37.97
2018-10-17T22:27:52.239Z,40.93
2018-10-17T22:30:20.593Z,27.57
2018-10-17T22:32:48.926Z,23.07
2018-10-17T22:35:17.324Z,20.37
2018-10-17T22:37:45.746Z,23.97
2018-10-17T22:40:14.121Z,22.93
2018-10-17T22:42:42.484Z,22.17
2018-10-17T22:45:10.812Z,22.53
2018-10-17T22:47:39.160Z,24.67
2018-10-17T22:50:08.075Z,22.77
2018-10-17T22:52:36.521Z,21.60
2018-10-17T22:55:04.893Z,30.43
2018-10-17T22:57:33.258Z,30.00
2018-10-17T23:00:01.589Z,25.03
2018-10-17T23:02:30.010Z,28.87
2018-10-17T23:04:58.524Z,31.83
2018-10-17T23:07:26.859Z,24.07
2018-10-17T23:09:55.235Z,22.63
2018-10-17T23:12:23.561Z,18.93
2018-10-17T23:14:51.967Z,23.07
2018-10-17T23:17:20.312Z,20.03
2018-10-17T23:19:48.619Z,18.83
2018-10-17T23:22:16.954Z,24.10
2018-10-17T23:24:45.280Z,22.33
2018-10-17T23:27:13.608Z,19.53
2018-10-17T23:29:41.917Z,21.30
2018-10-17T23:32:10.380Z,25.40
2018-10-17T23:34:38.695Z,20.53
2018-10-17T23:37:07.096Z,23.60
2018-10-17T23:39:35.531Z,19.10
2018-10-17T23:42:03.869Z,17.27
2018-10-17T23:44:32.184Z,17.53
2018-10-17T23:47:00.640Z,16.63
2018-10-17T23:49:29.003Z,17.60
2018-10-17T23:51:57.401Z,16.57
2018-10-17T23:54:25.790Z,20.20
2018-10-17T23:56:54.194Z,20.70
2018-10-17T23:59:22.492Z,19.03
